Time;durP1;ratioP1;P1;durP2;ratioP2;P2;SDS_P1;SDS_P2;PMS_P1;PMS_P2;Temp;Humidity;BMP_temperature;BMP_pressure;BME280_temperature;BME280_humidity;BME280_pressure;Samples;Min_cycle;Max_cycle;Signal;HPM_P1;HPM_P2
2022/05/14 00:00:20;;;;;;;11.13;7.53;;;;;;;;;;5114620;28;20416;-70
2022/05/14 00:02:46;;;;;;;9.20;6.87;;;;;;;;;;5114566;28;20408;-68
2022/05/14 00:05:12;;;;;;;6.80;6.17;;;;;;;;;;5114510;28;20898;-66
2022/05/14 00:07:38;;;;;;;8.03;6.93;;;;;;;;;;5114506;28;20408;-67
2022/05/14 00:10:05;;;;;;;11.67;7.40;;;;;;;;;;5114464;28;20418;-67
2022/05/14 00:15:16;;;;;;;7.93;7.33;;;;;;;;;;5114469;28;20508;-68
2022/05/14 00:17:44;;;;;;;10.33;7.27;;;;;;;;;;5096079;28;20431;-68
2022/05/14 00:20:11;;;;;;;12.20;6.83;;;;;;;;;;5114310;28;20396;-69
2022/05/14 00:22:37;;;;;;;7.47;6.77;;;;;;;;;;5114304;28;20445;-68
2022/05/14 00:25:03;;;;;;;7.10;6.07;;;;;;;;;;5114288;28;20439;-68
2022/05/14 00:27:29;;;;;;;8.13;5.57;;;;;;;;;;5096052;28;20426;-68
2022/05/14 00:29:56;;;;;;;6.53;5.33;;;;;;;;;;5114303;28;20774;-65
2022/05/14 00:32:22;;;;;;;6.20;5.70;;;;;;;;;;5096047;28;20426;-68
2022/05/14 00:34:48;;;;;;;13.23;5.53;;;;;;;;;;5114212;28;20403;-67
2022/05/14 00:37:14;;;;;;;16.80;5.40;;;;;;;;;;5114167;28;20416;-66
2022/05/14 00:39:40;;;;;;;9.20;5.80;;;;;;;;;;5096014;28;20432;-67
2022/05/14 00:42:06;;;;;;;6.93;5.43;;;;;;;;;;5114010;28;20503;-67
2022/05/14 00:44:32;;;;;;;11.50;5.83;;;;;;;;;;5114170;28;20414;-65
2022/05/14 00:47:02;;;;;;;6.90;6.40;;;;;;;;;;5113694;28;20407;-65
2022/05/14 00:49:29;;;;;;;6.43;5.93;;;;;;;;;;5114157;28;20434;-65
2022/05/14 00:51:55;;;;;;;13.47;6.97;;;;;;;;;;5114046;28;20417;-66
2022/05/14 00:54:24;;;;;;;9.50;7.33;;;;;;;;;;5114012;28;20522;-66
2022/05/14 00:56:53;;;;;;;7.00;6.50;;;;;;;;;;5113782;28;20486;-65
2022/05/14 00:59:20;;;;;;;6.53;5.60;;;;;;;;;;5113974;28;20410;-68
2022/05/14 01:01:48;;;;;;;7.00;6.23;;;;;;;;;;5113766;28;20480;-67
2022/05/14 01:04:14;;;;;;;10.73;6.67;;;;;;;;;;5113912;28;20395;-65
2022/05/14 01:06:42;;;;;;;8.57;7.17;;;;;;;;;;5113792;28;20495;-65
2022/05/14 01:09:08;;;;;;;11.90;6.13;;;;;;;;;;5113795;28;20463;-67
2022/05/14 01:11:35;;;;;;;7.67;5.97;;;;;;;;;;5113701;28;20456;-66
2022/05/14 01:14:01;;;;;;;7.83;6.80;;;;;;;;;;5113781;28;20486;-68
2022/05/14 01:16:27;;;;;;;7.47;6.77;;;;;;;;;;5113626;28;21051;-66
2022/05/14 01:18:53;;;;;;;6.90;6.03;;;;;;;;;;5113703;28;20404;-66
2022/05/14 01:21:19;;;;;;;6.87;6.20;;;;;;;;;;5113727;28;20404;-68
2022/05/14 01:26:37;;;;;;;6.30;5.90;;;;;;;;;;5113615;28;20456;-66
2022/05/14 01:29:03;;;;;;;9.53;5.70;;;;;;;;;;5113639;28;20443;-67
2022/05/14 01:31:29;;;;;;;7.30;5.67;;;;;;;;;;5113553;28;20411;-66
2022/05/14 01:33:56;;;;;;;7.90;5.20;;;;;;;;;;5113569;28;20400;-66
2022/05/14 01:36:22;;;;;;;6.20;5.00;;;;;;;;;;5113447;28;20509;-65
2022/05/14 01:38:48;;;;;;;7.07;5.23;;;;;;;;;;5113471;28;20435;-68
2022/05/14 01:41:14;;;;;;;5.30;5.00;;;;;;;;;;5113576;28;20450;-66
2022/05/14 01:43:40;;;;;;;10.13;5.67;;;;;;;;;;5113586;28;20436;-67
2022/05/14 01:46:06;;;;;;;9.63;5.30;;;;;;;;;;5113380;28;20414;-65
2022/05/14 01:48:33;;;;;;;8.27;5.30;;;;;;;;;;5095066;28;20417;-68
2022/05/14 01:50:59;;;;;;;8.93;4.90;;;;;;;;;;5113357;28;20603;-66
2022/05/14 01:53:25;;;;;;;6.00;5.33;;;;;;;;;;5113373;28;20493;-65
2022/05/14 01:55:51;;;;;;;19.73;5.70;;;;;;;;;;5113040;28;20543;-67
2022/05/14 02:01:01;;;;;;;5.80;5.03;;;;;;;;;;5117211;28;20403;-65
2022/05/14 02:03:27;;;;;;;11.27;5.33;;;;;;;;;;5116871;28;20405;-65
2022/05/14 02:05:53;;;;;;;10.87;5.50;;;;;;;;;;5116881;28;20488;-68
2022/05/14 02:08:19;;;;;;;5.77;4.83;;;;;;;;;;5116772;28;20737;-66
2022/05/14 02:10:45;;;;;;;6.57;5.30;;;;;;;;;;5116748;28;20504;-67
2022/05/14 02:13:11;;;;;;;5.53;4.40;;;;;;;;;;5116733;28;20413;-67
2022/05/14 02:15:37;;;;;;;5.03;4.10;;;;;;;;;;5116622;28;20973;-65
2022/05/14 02:18:03;;;;;;;9.40;4.93;;;;;;;;;;5116660;28;20397;-65
2022/05/14 02:20:30;;;;;;;13.73;5.00;;;;;;;;;;5116629;28;20843;-64
2022/05/14 02:22:56;;;;;;;10.03;4.80;;;;;;;;;;5116844;28;20450;-66
2022/05/14 02:25:22;;;;;;;10.50;4.83;;;;;;;;;;5116417;28;20413;-67
2022/05/14 02:27:48;;;;;;;5.03;4.63;;;;;;;;;;5116544;28;20400;-68
2022/05/14 02:30:14;;;;;;;4.40;4.00;;;;;;;;;;5116448;28;20906;-67
2022/05/14 02:32:40;;;;;;;5.70;4.40;;;;;;;;;;5116418;28;20409;-67
2022/05/14 02:35:06;;;;;;;4.90;4.40;;;;;;;;;;5116331;28;20427;-65
2022/05/14 02:37:32;;;;;;;7.20;4.70;;;;;;;;;;5116289;28;20416;-67
2022/05/14 02:39:58;;;;;;;7.50;4.30;;;;;;;;;;5116303;28;20903;-67
2022/05/14 02:42:24;;;;;;;5.73;4.33;;;;;;;;;;5116219;28;20438;-65
2022/05/14 02:44:50;;;;;;;12.33;4.10;;;;;;;;;;5116153;28;20447;-65
2022/05/14 02:47:16;;;;;;;5.17;4.10;;;;;;;;;;5116181;28;20879;-64
2022/05/14 02:49:42;;;;;;;4.30;3.90;;;;;;;;;;5097840;28;20416;-66
2022/05/14 02:52:09;;;;;;;5.17;4.13;;;;;;;;;;5116028;28;20491;-67
2022/05/14 02:54:36;;;;;;;12.77;4.70;;;;;;;;;;5115803;28;20941;-67
2022/05/14 02:57:02;;;;;;;4.23;3.60;;;;;;;;;;5115787;28;20467;-66
2022/05/14 02:59:28;;;;;;;4.50;4.23;;;;;;;;;;5115863;28;20405;-67
2022/05/14 03:01:54;;;;;;;12.27;5.40;;;;;;;;;;5115776;28;20913;-67
2022/05/14 03:04:25;;;;;;;4.90;4.60;;;;;;;;;;5115803;28;20863;-66
2022/05/14 03:06:52;;;;;;;19.90;4.57;;;;;;;;;;5115998;28;20385;-66
2022/05/14 03:09:18;;;;;;;5.47;4.17;;;;;;;;;;5115392;28;20432;-65
2022/05/14 03:11:44;;;;;;;5.07;3.80;;;;;;;;;;5115622;28;20432;-65
2022/05/14 03:14:11;;;;;;;9.37;4.30;;;;;;;;;;5115512;28;20544;-67
2022/05/14 03:16:37;;;;;;;4.33;4.10;;;;;;;;;;5115444;28;20548;-66
2022/05/14 03:19:03;;;;;;;4.87;4.37;;;;;;;;;;5115467;28;20403;-64
2022/05/14 03:21:29;;;;;;;4.27;3.93;;;;;;;;;;5115408;28;20423;-67
2022/05/14 03:23:55;;;;;;;6.97;4.17;;;;;;;;;;5097123;28;20891;-65
2022/05/14 03:26:22;;;;;;;5.70;4.63;;;;;;;;;;5115300;28;20427;-65
2022/05/14 03:28:48;;;;;;;5.53;4.27;;;;;;;;;;5096986;28;20816;-66
2022/05/14 03:31:14;;;;;;;12.13;3.90;;;;;;;;;;5115304;28;20416;-65
2022/05/14 03:33:40;;;;;;;3.73;3.53;;;;;;;;;;5115125;28;20831;-65
2022/05/14 03:36:08;;;;;;;5.53;4.30;;;;;;;;;;5096784;28;20471;-66
2022/05/14 03:38:34;;;;;;;7.00;4.07;;;;;;;;;;5115109;28;20397;-65
2022/05/14 03:41:00;;;;;;;6.40;3.90;;;;;;;;;;5114946;28;20473;-66
2022/05/14 03:43:26;;;;;;;4.27;3.83;;;;;;;;;;5114993;28;20465;-66
2022/05/14 03:45:52;;;;;;;6.60;3.70;;;;;;;;;;5114832;28;20416;-64
2022/05/14 03:48:18;;;;;;;4.47;4.10;;;;;;;;;;5114938;28;20407;-66
2022/05/14 03:50:44;;;;;;;5.33;3.90;;;;;;;;;;5114835;28;20786;-66
2022/05/14 03:53:10;;;;;;;5.17;3.90;;;;;;;;;;5114880;28;20408;-66
2022/05/14 03:55:36;;;;;;;3.63;3.43;;;;;;;;;;5114382;28;20974;-67
2022/05/14 03:58:02;;;;;;;5.33;3.53;;;;;;;;;;5096520;28;20914;-67
2022/05/14 04:00:28;;;;;;;3.60;3.27;;;;;;;;;;5114653;28;20458;-67
2022/05/14 04:02:54;;;;;;;4.00;3.43;;;;;;;;;;5114628;28;20466;-64
2022/05/14 04:05:20;;;;;;;3.90;3.60;;;;;;;;;;5114598;28;20409;-65
2022/05/14 04:07:47;;;;;;;4.30;3.90;;;;;;;;;;5114376;28;20425;-66
2022/05/14 04:10:16;;;;;;;9.70;3.73;;;;;;;;;;5114380;28;20494;-67
2022/05/14 04:12:42;;;;;;;3.30;3.00;;;;;;;;;;5114497;28;20840;-67
2022/05/14 04:15:08;;;;;;;3.60;3.37;;;;;;;;;;5114352;28;20768;-67
2022/05/14 04:17:34;;;;;;;7.33;3.73;;;;;;;;;;5114362;28;20403;-64
2022/05/14 04:20:00;;;;;;;3.50;3.20;;;;;;;;;;5113861;28;20400;-67
2022/05/14 04:22:26;;;;;;;3.93;3.73;;;;;;;;;;5114189;28;20401;-65
2022/05/14 04:24:52;;;;;;;8.33;3.20;;;;;;;;;;5114251;28;20903;-66
2022/05/14 04:27:18;;;;;;;5.10;4.03;;;;;;;;;;5114203;28;20407;-66
2022/05/14 04:29:44;;;;;;;6.40;3.20;;;;;;;;;;5114274;28;20860;-64
2022/05/14 04:32:10;;;;;;;4.67;3.73;;;;;;;;;;5114188;28;20489;-65
2022/05/14 04:34:36;;;;;;;3.50;3.20;;;;;;;;;;5114099;28;20722;-64
2022/05/14 04:37:02;;;;;;;9.13;3.67;;;;;;;;;;5114050;28;20554;-65
2022/05/14 04:39:31;;;;;;;4.93;3.80;;;;;;;;;;5114095;28;20858;-67
2022/05/14 04:42:00;;;;;;;9.80;3.23;;;;;;;;;;5114332;28;20426;-65
2022/05/14 04:44:27;;;;;;;4.07;3.80;;;;;;;;;;5114034;28;20400;-66
2022/05/14 04:46:53;;;;;;;3.97;3.67;;;;;;;;;;5113914;28;20399;-66
2022/05/14 04:49:19;;;;;;;4.03;3.77;;;;;;;;;;5114046;28;20408;-65
2022/05/14 04:51:46;;;;;;;4.97;3.63;;;;;;;;;;5113880;28;20445;-66
2022/05/14 04:54:12;;;;;;;3.37;3.27;;;;;;;;;;5113893;28;20488;-67
2022/05/14 04:56:38;;;;;;;7.33;3.60;;;;;;;;;;5113677;28;20562;-67
2022/05/14 04:59:04;;;;;;;4.93;3.20;;;;;;;;;;5113839;28;20483;-67
2022/05/14 05:01:30;;;;;;;4.10;3.40;;;;;;;;;;5113820;28;20441;-68
2022/05/14 05:03:57;;;;;;;3.50;3.03;;;;;;;;;;5113798;28;20492;-68
2022/05/14 05:06:23;;;;;;;8.20;3.23;;;;;;;;;;5113805;28;20408;-66
2022/05/14 05:08:51;;;;;;;3.37;2.90;;;;;;;;;;5113785;28;20444;-64
2022/05/14 05:11:18;;;;;;;3.80;2.60;;;;;;;;;;5113703;28;20412;-65
2022/05/14 05:13:44;;;;;;;4.20;2.73;;;;;;;;;;5113681;28;20433;-67
2022/05/14 05:16:10;;;;;;;2.83;2.63;;;;;;;;;;5113592;28;20499;-65
2022/05/14 05:18:36;;;;;;;3.20;3.10;;;;;;;;;;5113537;28;20402;-68
2022/05/14 05:21:02;;;;;;;11.90;9.50;;;;;;;;;;5113550;28;20405;-68
2022/05/14 05:23:28;;;;;;;6.50;5.20;;;;;;;;;;5113612;28;20396;-65
2022/05/14 05:25:55;;;;;;;9.90;5.70;;;;;;;;;;5113680;28;20861;-65
2022/05/14 05:28:21;;;;;;;7.60;7.10;;;;;;;;;;5113655;28;20484;-68
2022/05/14 05:30:47;;;;;;;7.13;6.20;;;;;;;;;;5113602;28;20487;-67
2022/05/14 05:33:16;;;;;;;4.37;4.17;;;;;;;;;;5117014;28;20400;-67
2022/05/14 05:35:43;;;;;;;6.73;5.80;;;;;;;;;;5117350;28;20513;-65
2022/05/14 05:38:09;;;;;;;3.33;3.10;;;;;;;;;;5117437;28;20407;-68
2022/05/14 05:40:35;;;;;;;8.63;3.57;;;;;;;;;;5117264;28;20906;-68
2022/05/14 05:43:01;;;;;;;3.50;3.30;;;;;;;;;;5117665;28;20393;-65
2022/05/14 05:45:27;;;;;;;6.00;3.27;;;;;;;;;;5117295;28;20876;-67
2022/05/14 05:47:53;;;;;;;3.03;2.83;;;;;;;;;;5117228;28;20402;-67
2022/05/14 05:50:19;;;;;;;5.67;3.40;;;;;;;;;;5117268;28;20409;-71
2022/05/14 05:52:45;;;;;;;3.57;3.37;;;;;;;;;;5117158;28;20413;-66
2022/05/14 05:57:56;;;;;;;2.90;2.80;;;;;;;;;;5117036;28;20454;-66
2022/05/14 06:00:24;;;;;;;12.10;2.77;;;;;;;;;;5116925;28;20403;-67
2022/05/14 06:02:50;;;;;;;6.83;3.40;;;;;;;;;;5117160;28;20414;-68
2022/05/14 06:05:16;;;;;;;16.43;3.43;;;;;;;;;;5116941;28;20392;-67
2022/05/14 06:07:42;;;;;;;3.03;2.90;;;;;;;;;;5116957;28;20406;-67
2022/05/14 06:10:10;;;;;;;5.03;3.37;;;;;;;;;;5116773;28;20410;-67
2022/05/14 06:12:38;;;;;;;2.33;2.13;;;;;;;;;;5116865;28;20414;-67
2022/05/14 06:15:05;;;;;;;2.97;2.77;;;;;;;;;;5116646;28;20893;-67
2022/05/14 06:17:31;;;;;;;2.90;2.13;;;;;;;;;;5116675;28;20394;-65
2022/05/14 06:19:57;;;;;;;2.27;2.07;;;;;;;;;;5116677;28;20400;-65
2022/05/14 06:22:23;;;;;;;5.30;2.97;;;;;;;;;;5116504;28;20464;-66
2022/05/14 06:24:49;;;;;;;2.50;2.27;;;;;;;;;;5098187;28;20422;-71
2022/05/14 06:27:15;;;;;;;6.43;3.27;;;;;;;;;;5116409;28;20405;-64
2022/05/14 06:29:40;;;;;;;4.43;3.20;;;;;;;;;;5116346;28;20412;-64
2022/05/14 06:32:07;;;;;;;2.60;2.40;;;;;;;;;;5116387;28;20415;-64
2022/05/14 06:34:33;;;;;;;3.10;2.90;;;;;;;;;;5116353;28;20406;-63
2022/05/14 06:36:59;;;;;;;5.03;3.20;;;;;;;;;;5116151;28;20469;-63
2022/05/14 06:39:27;;;;;;;2.83;2.60;;;;;;;;;;5116281;28;21098;-63
2022/05/14 06:41:53;;;;;;;3.00;2.80;;;;;;;;;;5115919;28;20496;-63
2022/05/14 06:44:19;;;;;;;19.27;2.83;;;;;;;;;;5115597;28;20399;-63
2022/05/14 06:46:45;;;;;;;10.20;3.27;;;;;;;;;;5116311;28;20759;-63
2022/05/14 06:49:12;;;;;;;3.43;3.03;;;;;;;;;;5116074;28;20399;-63
2022/05/14 06:51:40;;;;;;;11.23;2.67;;;;;;;;;;5116108;28;20524;-63
2022/05/14 06:54:08;;;;;;;3.07;2.53;;;;;;;;;;5115958;28;20396;-63
2022/05/14 06:56:35;;;;;;;13.47;2.53;;;;;;;;;;5115600;28;20490;-63
2022/05/14 06:59:01;;;;;;;2.40;2.30;;;;;;;;;;5115770;28;20862;-63
2022/05/14 07:01:28;;;;;;;2.67;2.50;;;;;;;;;;5115782;28;20442;-63
2022/05/14 07:06:41;;;;;;;4.03;2.50;;;;;;;;;;5116228;28;20395;-63
2022/05/14 07:09:09;;;;;;;2.30;2.20;;;;;;;;;;5116161;28;20919;-63
2022/05/14 07:11:37;;;;;;;6.83;2.40;;;;;;;;;;5116023;28;20451;-63
2022/05/14 07:14:03;;;;;;;4.57;3.00;;;;;;;;;;5115730;28;20442;-63
2022/05/14 07:16:29;;;;;;;3.53;2.57;;;;;;;;;;5115513;28;20495;-63
2022/05/14 07:18:55;;;;;;;11.07;3.00;;;;;;;;;;5097234;28;20460;-63
2022/05/14 07:21:21;;;;;;;4.70;2.50;;;;;;;;;;5115394;28;20866;-63
2022/05/14 07:23:47;;;;;;;4.87;2.60;;;;;;;;;;5115435;28;20435;-63
2022/05/14 07:26:13;;;;;;;2.50;2.20;;;;;;;;;;5115314;28;20416;-63
2022/05/14 07:28:39;;;;;;;2.43;2.23;;;;;;;;;;5115241;28;20396;-63
2022/05/14 07:31:06;;;;;;;2.50;2.10;;;;;;;;;;5115212;28;20420;-63
2022/05/14 07:33:32;;;;;;;3.37;3.20;;;;;;;;;;5115048;28;20419;-63
2022/05/14 07:36:01;;;;;;;5.30;2.33;;;;;;;;;;5115085;28;20558;-63
2022/05/14 07:38:27;;;;;;;7.07;2.17;;;;;;;;;;5115055;28;20405;-63
2022/05/14 07:40:53;;;;;;;13.97;12.37;;;;;;;;;;5114935;28;20408;-63
2022/05/14 07:43:25;;;;;;;2.90;2.70;;;;;;;;;;5114887;28;20412;-63
2022/05/14 07:45:56;;;;;;;4.70;2.33;;;;;;;;;;5115177;28;20404;-63
2022/05/14 07:48:28;;;;;;;1.93;1.77;;;;;;;;;;5114795;28;20413;-63
2022/05/14 07:50:54;;;;;;;2.57;2.20;;;;;;;;;;5114786;28;20504;-64
2022/05/14 07:53:20;;;;;;;2.10;1.83;;;;;;;;;;5114717;28;20410;-64
2022/05/14 07:55:47;;;;;;;3.13;2.20;;;;;;;;;;5113833;28;20981;-64
2022/05/14 07:58:13;;;;;;;4.70;3.00;;;;;;;;;;5114721;28;20418;-63
2022/05/14 08:00:40;;;;;;;4.00;2.60;;;;;;;;;;5114682;28;20402;-64
2022/05/14 08:03:06;;;;;;;3.57;1.97;;;;;;;;;;5114860;28;20419;-64
2022/05/14 08:05:32;;;;;;;2.20;2.00;;;;;;;;;;5114569;28;20407;-64
2022/05/14 08:07:58;;;;;;;4.23;2.10;;;;;;;;;;5114448;28;20401;-64
2022/05/14 08:10:25;;;;;;;9.57;2.57;;;;;;;;;;5114320;28;20774;-64
2022/05/14 08:12:54;;;;;;;4.73;2.20;;;;;;;;;;5114607;28;20395;-64
2022/05/14 08:15:21;;;;;;;3.17;2.43;;;;;;;;;;5114138;28;20403;-64
2022/05/14 08:17:48;;;;;;;2.40;2.30;;;;;;;;;;5114417;28;20419;-64
2022/05/14 08:20:14;;;;;;;4.27;2.40;;;;;;;;;;5114160;28;20396;-64
2022/05/14 08:25:26;;;;;;;2.50;2.30;;;;;;;;;;5114164;28;20448;-64
2022/05/14 08:27:52;;;;;;;4.30;2.90;;;;;;;;;;5114352;28;20408;-64
2022/05/14 08:30:20;;;;;;;2.50;2.30;;;;;;;;;;5114016;28;20889;-63
2022/05/14 08:32:46;;;;;;;9.97;2.17;;;;;;;;;;5113966;28;20411;-63
2022/05/14 08:35:12;;;;;;;2.70;2.60;;;;;;;;;;5114009;28;20797;-63
2022/05/14 08:37:39;;;;;;;2.47;2.37;;;;;;;;;;5113908;28;20512;-63
2022/05/14 08:40:18;;;;;;;5.40;2.33;;;;;;;;;;5113791;28;20982;-63
2022/05/14 08:42:45;;;;;;;4.63;2.60;;;;;;;;;;5113924;28;20495;-63
2022/05/14 08:45:12;;;;;;;4.47;2.27;;;;;;;;;;5095676;28;20451;-63
2022/05/14 08:47:41;;;;;;;5.57;2.53;;;;;;;;;;5113909;28;20434;-64
2022/05/14 08:50:08;;;;;;;2.67;2.30;;;;;;;;;;5113931;28;20397;-63
2022/05/14 08:52:35;;;;;;;3.77;2.10;;;;;;;;;;5113866;28;20890;-63
2022/05/14 08:55:04;;;;;;;3.70;2.20;;;;;;;;;;5113629;28;20470;-63
2022/05/14 08:57:39;;;;;;;3.33;2.50;;;;;;;;;;5113780;28;20472;-64
2022/05/14 09:00:06;;;;;;;1.90;1.67;;;;;;;;;;5113734;28;20906;-64
2022/05/14 09:02:34;;;;;;;3.27;2.17;;;;;;;;;;5113766;28;20506;-65
2022/05/14 09:05:02;;;;;;;2.20;2.00;;;;;;;;;;5113658;28;20878;-65
2022/05/14 09:07:28;;;;;;;3.70;1.67;;;;;;;;;;5116115;28;20414;-65
2022/05/14 09:09:55;;;;;;;6.63;1.40;;;;;;;;;;5117937;28;20410;-65
2022/05/14 09:12:23;;;;;;;6.70;1.50;;;;;;;;;;5099592;28;20480;-65
2022/05/14 09:14:53;;;;;;;2.77;1.77;;;;;;;;;;5117876;28;20489;-64
2022/05/14 09:17:20;;;;;;;1.70;1.40;;;;;;;;;;5117692;28;20500;-64
2022/05/14 09:19:47;;;;;;;4.63;1.50;;;;;;;;;;5118023;28;20425;-64
2022/05/14 09:22:13;;;;;;;2.13;1.83;;;;;;;;;;5117696;28;20398;-64
2022/05/14 09:24:45;;;;;;;5.10;1.70;;;;;;;;;;5117517;28;20406;-64
2022/05/14 09:27:14;;;;;;;5.33;2.10;;;;;;;;;;5118061;28;20497;-65
2022/05/14 09:29:42;;;;;;;2.87;1.50;;;;;;;;;;5117779;28;20399;-65
2022/05/14 09:32:17;;;;;;;6.40;1.53;;;;;;;;;;5117339;28;20437;-65
2022/05/14 09:34:43;;;;;;;2.47;1.70;;;;;;;;;;5117390;28;20414;-66
2022/05/14 09:37:16;;;;;;;1.83;1.70;;;;;;;;;;5117050;28;20462;-65
2022/05/14 09:39:42;;;;;;;1.73;1.63;;;;;;;;;;5117063;28;20417;-64
2022/05/14 09:42:23;;;;;;;8.23;1.73;;;;;;;;;;5117400;28;20415;-65
2022/05/14 09:44:51;;;;;;;1.53;1.43;;;;;;;;;;5116950;28;20787;-66
2022/05/14 09:47:28;;;;;;;3.40;1.50;;;;;;;;;;5117357;28;20437;-65
2022/05/14 09:49:55;;;;;;;2.40;1.67;;;;;;;;;;5117231;28;20471;-65
2022/05/14 09:52:26;;;;;;;4.33;1.47;;;;;;;;;;5117133;28;20407;-65
2022/05/14 09:54:52;;;;;;;2.50;1.77;;;;;;;;;;5116911;28;20436;-66
2022/05/14 09:57:18;;;;;;;4.97;1.60;;;;;;;;;;5117334;28;20553;-65
2022/05/14 09:59:50;;;;;;;1.40;1.30;;;;;;;;;;5117089;28;20546;-66
2022/05/14 10:02:25;;;;;;;2.07;1.47;;;;;;;;;;5117120;28;20483;-65
2022/05/14 10:05:10;;;;;;;1.70;1.17;;;;;;;;;;5116984;28;20394;-66
2022/05/14 10:07:35;;;;;;;1.93;1.43;;;;;;;;;;5116890;28;20411;-66
2022/05/14 10:10:04;;;;;;;2.27;1.60;;;;;;;;;;5116763;28;20413;-64
2022/05/14 10:12:30;;;;;;;1.53;1.43;;;;;;;;;;5116557;28;20463;-64
2022/05/14 10:15:09;;;;;;;2.07;1.53;;;;;;;;;;5116323;28;20425;-64
2022/05/14 10:17:39;;;;;;;2.53;1.40;;;;;;;;;;5116147;28;20469;-64
2022/05/14 10:20:20;;;;;;;2.20;1.17;;;;;;;;;;5115867;28;20404;-64
2022/05/14 10:28:39;;;;;;;1.40;1.40;;;;;;;;;;5116343;28;20411;-65
2022/05/14 10:31:23;;;;;;;4.47;1.90;;;;;;;;;;5116341;28;20410;-66
2022/05/14 10:33:51;;;;;;;2.90;1.90;;;;;;;;;;5116399;28;20411;-67
2022/05/14 10:36:20;;;;;;;2.20;2.00;;;;;;;;;;5098025;28;20475;-67
2022/05/14 10:38:50;;;;;;;2.10;2.00;;;;;;;;;;5116138;28;20411;-66
2022/05/14 10:41:26;;;;;;;6.53;2.43;;;;;;;;;;5116278;28;20427;-66
2022/05/14 10:43:58;;;;;;;4.97;1.50;;;;;;;;;;5116083;28;20419;-67
2022/05/14 10:46:33;;;;;;;3.20;1.87;;;;;;;;;;5115974;28;20420;-65
2022/05/14 10:49:01;;;;;;;3.23;1.80;;;;;;;;;;5116099;28;20395;-66
2022/05/14 10:51:31;;;;;;;2.77;1.50;;;;;;;;;;5115943;28;20404;-66
2022/05/14 10:54:00;;;;;;;2.83;2.13;;;;;;;;;;5115941;28;20389;-64
2022/05/14 10:56:36;;;;;;;5.70;1.60;;;;;;;;;;5115695;28;20486;-65
2022/05/14 10:59:02;;;;;;;3.17;1.80;;;;;;;;;;5115872;28;20915;-65
2022/05/14 11:01:28;;;;;;;2.33;1.73;;;;;;;;;;5115871;28;20415;-65
2022/05/14 11:03:56;;;;;;;6.20;2.23;;;;;;;;;;5115718;28;20830;-65
2022/05/14 11:06:28;;;;;;;5.70;2.10;;;;;;;;;;5115808;28;20418;-65
2022/05/14 11:08:54;;;;;;;4.13;2.20;;;;;;;;;;5097390;28;20779;-65
2022/05/14 11:11:22;;;;;;;1.80;1.70;;;;;;;;;;5115639;28;20406;-65
2022/05/14 11:14:00;;;;;;;2.10;1.90;;;;;;;;;;5115463;28;20439;-65
2022/05/14 11:16:46;;;;;;;1.70;1.60;;;;;;;;;;5115469;28;20459;-64
2022/05/14 11:19:24;;;;;;;6.83;1.90;;;;;;;;;;5115740;28;20407;-65
2022/05/14 11:21:50;;;;;;;4.33;1.83;;;;;;;;;;5115496;28;20436;-65
2022/05/14 11:24:17;;;;;;;3.57;1.83;;;;;;;;;;5115485;28;20418;-64
2022/05/14 11:26:44;;;;;;;2.97;1.53;;;;;;;;;;5115325;28;20432;-64
2022/05/14 11:29:15;;;;;;;2.20;2.00;;;;;;;;;;5096958;28;20417;-65
2022/05/14 11:31:50;;;;;;;1.53;1.43;;;;;;;;;;5115262;28;20418;-65
2022/05/14 11:34:18;;;;;;;2.13;2.03;;;;;;;;;;5115075;28;20947;-65
2022/05/14 11:36:49;;;;;;;8.73;2.23;;;;;;;;;;5115092;28;20476;-64
2022/05/14 11:39:24;;;;;;;3.07;1.77;;;;;;;;;;5096792;28;20785;-64
2022/05/14 11:41:52;;;;;;;3.43;2.50;;;;;;;;;;5115041;28;20417;-64
2022/05/14 11:44:27;;;;;;;5.20;2.53;;;;;;;;;;5096700;28;20421;-71
2022/05/14 11:46:53;;;;;;;2.40;1.97;;;;;;;;;;5114880;28;20922;-70
2022/05/14 11:49:22;;;;;;;2.10;1.70;;;;;;;;;;5114937;28;20397;-67
2022/05/14 11:51:48;;;;;;;6.47;2.20;;;;;;;;;;5114770;28;20894;-68
2022/05/14 11:54:23;;;;;;;2.80;1.80;;;;;;;;;;5114719;28;20404;-65
2022/05/14 11:57:04;;;;;;;2.40;1.70;;;;;;;;;;5114387;28;20233;-64
2022/05/14 11:59:40;;;;;;;2.77;1.53;;;;;;;;;;5114723;28;20910;-64
2022/05/14 12:02:08;;;;;;;4.27;2.00;;;;;;;;;;5114634;28;20407;-66
2022/05/14 12:04:36;;;;;;;9.00;2.10;;;;;;;;;;5114594;28;20407;-66
2022/05/14 12:07:08;;;;;;;2.00;1.47;;;;;;;;;;5096431;28;20868;-67
2022/05/14 12:09:45;;;;;;;1.47;1.37;;;;;;;;;;5114531;28;20399;-67
2022/05/14 12:12:20;;;;;;;3.10;1.67;;;;;;;;;;5114450;28;20775;-67
2022/05/14 12:14:46;;;;;;;2.50;1.30;;;;;;;;;;5114358;28;20875;-67
2022/05/14 12:17:17;;;;;;;2.47;1.43;;;;;;;;;;5114278;28;21049;-68
2022/05/14 12:19:46;;;;;;;1.90;1.80;;;;;;;;;;5114356;28;20437;-67
2022/05/14 12:22:15;;;;;;;2.80;1.40;;;;;;;;;;5096010;28;20523;-67
2022/05/14 12:24:52;;;;;;;3.70;1.33;;;;;;;;;;5114435;28;21039;-67
2022/05/14 12:27:20;;;;;;;2.10;1.40;;;;;;;;;;5096062;28;20435;-66
2022/05/14 12:29:54;;;;;;;1.50;1.40;;;;;;;;;;5114263;28;20405;-65
2022/05/14 12:35:25;;;;;;;2.80;2.30;;;;;;;;;;5114273;28;20396;-65
2022/05/14 12:37:53;;;;;;;1.40;1.33;;;;;;;;;;5114147;28;20894;-64
2022/05/14 12:40:21;;;;;;;2.07;2.00;;;;;;;;;;5114055;28;20465;-67
2022/05/14 12:42:47;;;;;;;1.97;1.53;;;;;;;;;;5113648;28;20405;-65
2022/05/14 12:45:13;;;;;;;2.50;1.67;;;;;;;;;;5114355;28;20401;-67
2022/05/14 12:47:39;;;;;;;2.97;1.80;;;;;;;;;;5113986;28;20811;-65
2022/05/14 12:50:35;;;;;;;6.00;1.60;;;;;;;;;;5114096;28;20397;-67
2022/05/14 12:53:05;;;;;;;1.67;1.57;;;;;;;;;;5092705;28;20428;-66
2022/05/14 12:55:33;;;;;;;3.27;1.40;;;;;;;;;;5095368;28;20845;-67
2022/05/14 12:58:01;;;;;;;4.83;1.60;;;;;;;;;;5113733;28;20413;-65
2022/05/14 13:00:27;;;;;;;2.20;1.70;;;;;;;;;;5113789;28;20407;-64
2022/05/14 13:03:12;;;;;;;1.73;1.63;;;;;;;;;;5113691;28;20508;-67
2022/05/14 13:05:45;;;;;;;2.63;1.70;;;;;;;;;;5113633;28;20404;-65
2022/05/14 13:08:19;;;;;;;2.60;1.80;;;;;;;;;;5113744;28;20830;-66
2022/05/14 13:10:56;;;;;;;1.60;1.47;;;;;;;;;;5095686;28;20417;-66
2022/05/14 13:13:48;;;;;;;3.03;1.90;;;;;;;;;;5113981;28;20400;-66
2022/05/14 13:16:16;;;;;;;2.00;1.60;;;;;;;;;;5108907;28;20679;-66
2022/05/14 13:19:01;;;;;;;2.53;1.53;;;;;;;;;;5113630;28;20435;-65
2022/05/14 13:21:33;;;;;;;2.67;1.50;;;;;;;;;;5095390;28;20441;-66
2022/05/14 13:24:04;;;;;;;2.70;1.20;;;;;;;;;;5113724;28;20817;-65
2022/05/14 13:26:31;;;;;;;1.50;1.40;;;;;;;;;;5113868;28;20491;-64
2022/05/14 13:29:07;;;;;;;1.43;1.43;;;;;;;;;;5113609;28;20403;-64
2022/05/14 13:31:34;;;;;;;1.63;1.40;;;;;;;;;;5113644;28;20402;-63
2022/05/14 13:37:08;;;;;;;1.60;1.50;;;;;;;;;;5113462;28;20491;-64
2022/05/14 13:39:53;;;;;;;4.13;4.00;;;;;;;;;;5113387;28;20400;-67
2022/05/14 13:42:25;;;;;;;2.20;2.00;;;;;;;;;;5113397;28;20467;-64
2022/05/14 13:45:00;;;;;;;1.60;1.50;;;;;;;;;;5113418;28;20419;-64
2022/05/14 13:47:26;;;;;;;2.50;1.70;;;;;;;;;;5113558;28;20825;-64
2022/05/14 13:49:54;;;;;;;2.83;1.47;;;;;;;;;;5113559;28;20400;-64
2022/05/14 13:52:24;;;;;;;11.70;10.67;;;;;;;;;;5113355;28;20845;-64
2022/05/14 13:54:59;;;;;;;1.73;1.40;;;;;;;;;;5097744;28;20758;-64
2022/05/14 13:57:26;;;;;;;1.83;1.70;;;;;;;;;;5117081;28;20875;-64
2022/05/14 14:00:05;;;;;;;2.20;1.70;;;;;;;;;;5117087;28;20463;-66
2022/05/14 14:02:32;;;;;;;1.63;1.53;;;;;;;;;;5117201;28;20410;-65
2022/05/14 14:05:08;;;;;;;1.53;1.43;;;;;;;;;;5117095;28;20437;-63
2022/05/14 14:07:35;;;;;;;5.83;1.77;;;;;;;;;;5117164;28;20393;-63
2022/05/14 14:10:08;;;;;;;3.73;1.20;;;;;;;;;;5116775;28;20414;-63
2022/05/14 14:12:34;;;;;;;1.27;1.27;;;;;;;;;;5116845;28;20410;-64
2022/05/14 14:15:01;;;;;;;2.40;1.60;;;;;;;;;;5116619;28;20762;-64
2022/05/14 14:17:27;;;;;;;3.03;1.50;;;;;;;;;;5098367;28;20481;-64
2022/05/14 14:19:53;;;;;;;1.77;1.67;;;;;;;;;;5116702;28;20433;-64
2022/05/14 14:22:22;;;;;;;1.93;1.40;;;;;;;;;;5116555;28;20886;-66
2022/05/14 14:24:49;;;;;;;3.37;1.50;;;;;;;;;;5116613;28;20802;-66
2022/05/14 14:27:16;;;;;;;1.60;1.40;;;;;;;;;;5116633;28;20402;-64
2022/05/14 14:29:42;;;;;;;1.97;1.40;;;;;;;;;;5116737;28;20459;-64
2022/05/14 14:32:08;;;;;;;1.17;1.17;;;;;;;;;;5116456;28;20874;-64
2022/05/14 14:34:34;;;;;;;1.20;1.17;;;;;;;;;;5098065;28;20442;-65
2022/05/14 14:37:00;;;;;;;1.40;1.30;;;;;;;;;;5116177;28;20470;-64
2022/05/14 14:39:26;;;;;;;6.70;6.17;;;;;;;;;;5116427;28;20840;-65
2022/05/14 14:41:52;;;;;;;1.23;1.00;;;;;;;;;;5116277;28;20507;-65
2022/05/14 14:44:18;;;;;;;5.70;1.20;;;;;;;;;;5116232;28;20425;-64
2022/05/14 14:46:44;;;;;;;4.17;1.10;;;;;;;;;;5116256;28;20399;-64
2022/05/14 14:49:13;;;;;;;1.53;0.97;;;;;;;;;;5097945;28;20980;-63
2022/05/14 14:51:39;;;;;;;1.63;1.20;;;;;;;;;;5116380;28;20403;-63
2022/05/14 14:54:05;;;;;;;1.10;1.00;;;;;;;;;;5116331;28;20431;-65
2022/05/14 14:56:31;;;;;;;1.17;1.03;;;;;;;;;;5115674;28;20495;-64
2022/05/14 14:58:57;;;;;;;5.27;0.90;;;;;;;;;;5115945;28;20404;-64
2022/05/14 15:01:26;;;;;;;2.10;1.10;;;;;;;;;;5097626;28;20787;-67
2022/05/14 15:03:58;;;;;;;2.77;1.30;;;;;;;;;;5115694;28;20419;-64
2022/05/14 15:06:24;;;;;;;1.80;1.70;;;;;;;;;;5115771;28;20421;-66
2022/05/14 15:08:51;;;;;;;1.20;1.10;;;;;;;;;;5115779;28;20906;-66
2022/05/14 15:11:19;;;;;;;1.67;1.00;;;;;;;;;;5115772;28;20400;-64
2022/05/14 15:13:46;;;;;;;3.20;1.10;;;;;;;;;;5097434;28;20435;-65